Time;durP1;ratioP1;P1;durP2;ratioP2;P2;SDS_P1;SDS_P2;PMS_P1;PMS_P2;Temp;Humidity;BMP_temperature;BMP_pressure;BME280_temperature;BME280_humidity;BME280_pressure;Samples;Min_cycle;Max_cycle;Signal;HPM_P1;HPM_P2
2022/11/15 00:01:26;;;;;;;13.30;5.53;;;3.80;99.90;;;;;;5033515;28;20107;-47
2022/11/15 00:04:12;;;;;;;14.35;5.97;;;3.70;99.90;;;;;;5033932;28;20048;-48
2022/11/15 00:06:57;;;;;;;11.48;5.50;;;3.70;99.90;;;;;;5049796;28;20508;-47
2022/11/15 00:09:42;;;;;;;13.68;6.97;;;3.60;99.90;;;;;;5053547;28;20051;-47
2022/11/15 00:12:30;;;;;;;15.25;7.05;;;3.60;99.90;;;;;;5046089;28;20060;-47
2022/11/15 00:15:15;;;;;;;17.10;7.55;;;3.60;99.90;;;;;;5041021;28;20052;-47
2022/11/15 00:18:01;;;;;;;14.57;6.88;;;3.50;99.90;;;;;;5051927;28;20055;-47
2022/11/15 00:20:46;;;;;;;14.23;7.18;;;3.50;99.90;;;;;;5052360;28;20166;-47
2022/11/15 00:23:33;;;;;;;17.58;6.85;;;3.50;99.90;;;;;;5049878;28;20071;-47
2022/11/15 00:26:18;;;;;;;18.85;7.32;;;3.50;99.90;;;;;;5044714;28;20056;-47
2022/11/15 00:29:04;;;;;;;12.07;6.88;;;3.60;99.90;;;;;;5053326;28;20091;-47
2022/11/15 00:31:49;;;;;;;12.63;6.63;;;3.60;99.90;;;;;;5050010;28;20567;-47
2022/11/15 00:34:34;;;;;;;15.00;6.43;;;3.60;99.90;;;;;;5047393;28;20243;-46
2022/11/15 00:37:19;;;;;;;12.77;6.40;;;3.50;99.90;;;;;;5052851;28;20056;-47
2022/11/15 00:40:07;;;;;;;13.52;6.28;;;3.50;99.90;;;;;;5052794;28;20134;-49
2022/11/15 00:42:52;;;;;;;16.83;7.30;;;3.50;99.90;;;;;;5049368;28;20064;-47
2022/11/15 00:45:37;;;;;;;12.25;6.68;;;3.40;99.90;;;;;;5053209;28;20214;-47
2022/11/15 00:48:23;;;;;;;12.25;6.20;;;3.40;99.90;;;;;;5052865;28;20424;-48
2022/11/15 00:51:08;;;;;;;14.95;6.53;;;3.40;99.90;;;;;;5044329;28;20072;-47
2022/11/15 00:53:54;;;;;;;13.65;5.55;;;3.40;99.90;;;;;;5052684;28;20052;-47
2022/11/15 00:56:39;;;;;;;10.18;4.57;;;3.20;99.90;;;;;;5051895;28;20052;-49
2022/11/15 00:59:24;;;;;;;9.70;4.50;;;3.00;99.90;;;;;;5051145;28;20528;-46
2022/11/15 01:02:10;;;;;;;9.40;4.40;;;2.90;99.90;;;;;;5052691;28;20519;-47
2022/11/15 01:04:55;;;;;;;9.50;5.05;;;2.80;99.90;;;;;;5044484;28;20126;-49
2022/11/15 01:07:40;;;;;;;15.75;5.80;;;2.80;99.90;;;;;;5052867;28;20409;-45
2022/11/15 01:10:26;;;;;;;8.82;4.70;;;2.80;99.90;;;;;;5051827;28;20536;-46
2022/11/15 01:13:11;;;;;;;10.32;4.60;;;2.80;99.90;;;;;;5049586;28;20528;-47
2022/11/15 01:15:57;;;;;;;11.55;5.07;;;2.70;99.90;;;;;;5050270;28;20056;-47
2022/11/15 01:18:44;;;;;;;9.40;4.95;;;2.70;99.90;;;;;;5048173;28;20059;-48
2022/11/15 01:21:29;;;;;;;17.02;5.80;;;2.80;99.90;;;;;;5051206;28;20163;-47
2022/11/15 01:24:15;;;;;;;12.73;5.38;;;2.80;99.90;;;;;;5049797;28;20155;-47
2022/11/15 01:27:00;;;;;;;14.25;6.20;;;2.80;99.90;;;;;;5049909;28;20055;-47
2022/11/15 01:29:46;;;;;;;11.23;5.85;;;2.80;99.90;;;;;;5051061;28;20410;-47
2022/11/15 01:32:32;;;;;;;8.23;4.68;;;2.80;99.90;;;;;;5052142;28;20080;-47
2022/11/15 01:35:17;;;;;;;10.75;4.90;;;2.90;99.90;;;;;;5040387;28;20064;-45
2022/11/15 01:38:02;;;;;;;15.05;6.63;;;2.90;99.90;;;;;;5050667;28;20067;-45
2022/11/15 01:40:49;;;;;;;10.32;5.13;;;3.00;99.90;;;;;;5044503;28;20095;-45
2022/11/15 01:43:36;;;;;;;10.35;4.93;;;3.00;99.90;;;;;;5046294;28;20048;-47
2022/11/15 01:46:21;;;;;;;14.68;5.15;;;3.00;99.90;;;;;;5049077;28;20079;-48
2022/11/15 01:49:14;;;;;;;8.70;4.63;;;3.10;99.90;;;;;;5051783;28;20417;-47
2022/11/15 01:52:02;;;;;;;10.57;4.65;;;3.10;99.90;;;;;;5051366;28;20507;-47
2022/11/15 01:54:50;;;;;;;8.90;4.70;;;3.20;99.90;;;;;;5051969;28;20106;-47
2022/11/15 01:57:37;;;;;;;9.57;4.57;;;3.20;99.90;;;;;;5051667;28;20052;-47
2022/11/15 02:00:22;;;;;;;8.95;4.85;;;3.20;99.90;;;;;;5044334;28;20052;-45
2022/11/15 02:03:07;;;;;;;8.63;4.00;;;3.20;99.90;;;;;;5049857;28;20048;-47
2022/11/15 02:05:53;;;;;;;8.63;4.20;;;3.20;99.90;;;;;;5050753;28;20051;-47
2022/11/15 02:08:39;;;;;;;8.07;3.90;;;3.30;99.90;;;;;;5047210;28;20053;-47
2022/11/15 02:11:25;;;;;;;11.98;4.55;;;3.20;99.90;;;;;;5044467;28;20063;-48
2022/11/15 02:14:11;;;;;;;7.18;3.10;;;3.20;99.90;;;;;;5046304;28;20060;-46
2022/11/15 02:17:35;;;;;;;4.03;2.13;;;3.20;99.90;;;;;;5051428;28;20146;-45
2022/11/15 02:20:34;;;;;;;4.70;2.53;;;3.00;99.90;;;;;;5043931;28;20044;-47
2022/11/15 02:23:44;;;;;;;4.45;2.40;;;2.90;99.90;;;;;;5050135;28;20056;-48
2022/11/15 02:26:32;;;;;;;;;;;2.80;99.90;;;;;;5045531;28;20449;-44
2022/11/15 02:30:02;;;;;;;5.53;3.28;;;2.80;99.90;;;;;;5031401;28;19928;-47
2022/11/15 02:33:10;;;;;;;6.93;3.60;;;2.80;99.90;;;;;;5030980;28;20051;-47
2022/11/15 02:36:02;;;;;;;5.72;3.65;;;2.80;99.90;;;;;;5051137;28;20067;-47
2022/11/15 02:39:10;;;;;;;7.03;4.35;;;2.80;99.90;;;;;;5051206;28;20579;-47
2022/11/15 02:43:56;;;;;;;8.07;4.28;;;2.90;99.90;;;;;;5048803;28;20052;-47
2022/11/15 02:45:16;;;;;;;10.13;4.78;;;2.90;99.90;;;;;;5050515;28;20048;-45
2022/11/15 02:48:03;;;;;;;8.10;4.32;;;2.90;99.90;;;;;;5051786;28;20412;-48
2022/11/15 02:50:49;;;;;;;7.95;4.40;;;2.90;99.90;;;;;;5048364;28;20073;-45
2022/11/15 02:53:35;;;;;;;7.68;3.58;;;2.90;99.90;;;;;;5049629;28;20051;-47
2022/11/15 02:56:20;;;;;;;7.57;4.07;;;3.00;99.90;;;;;;5055545;28;20433;-48
2022/11/15 02:59:34;;;;;;;9.60;4.50;;;3.00;99.90;;;;;;5050751;28;20627;-46
2022/11/15 03:02:44;;;;;;;7.70;4.57;;;3.00;99.90;;;;;;5047753;28;20178;-47
2022/11/15 03:05:56;;;;;;;6.85;4.35;;;3.00;99.90;;;;;;5034556;28;20267;-47
2022/11/15 03:08:53;;;;;;;6.35;4.25;;;3.10;99.90;;;;;;5034952;28;20067;-49
2022/11/15 03:11:44;;;;;;;6.78;4.25;;;3.90;99.90;;;;;;4992310;28;20057;-47
2022/11/15 03:14:39;;;;;;;8.02;4.38;;;3.10;99.90;;;;;;4995685;28;20100;-48
2022/11/15 03:17:45;;;;;;;10.18;4.50;;;3.00;99.90;;;;;;4994659;28;20101;-48
2022/11/15 03:20:32;;;;;;;9.40;3.55;;;3.00;99.90;;;;;;5008883;28;20410;-48
2022/11/15 03:23:17;;;;;;;7.80;4.07;;;3.00;99.90;;;;;;5002800;28;20045;-48
2022/11/15 03:26:08;;;;;;;7.18;4.35;;;2.90;99.90;;;;;;4994524;28;20057;-49
2022/11/15 03:29:03;;;;;;;8.13;4.45;;;2.90;99.90;;;;;;4997981;28;20104;-47
2022/11/15 03:31:54;;;;;;;7.35;4.45;;;2.90;99.90;;;;;;5006536;28;20052;-51
2022/11/15 03:35:01;;;;;;;7.03;4.13;;;2.90;99.90;;;;;;5015053;28;20057;-47
2022/11/15 03:37:49;;;;;;;5.72;3.80;;;2.90;99.90;;;;;;5015230;28;20052;-49
2022/11/15 03:40:39;;;;;;;3.88;2.47;;;2.90;99.90;;;;;;4999448;28;20046;-47
2022/11/15 03:43:33;;;;;;;7.57;4.20;;;2.90;99.90;;;;;;4994782;28;20173;-47
2022/11/15 03:46:28;;;;;;;8.05;4.40;;;2.90;99.90;;;;;;4995025;28;20056;-48
2022/11/15 03:49:28;;;;;;;10.85;3.58;;;2.90;99.90;;;;;;4998956;28;20145;-50
2022/11/15 03:52:18;;;;;;;7.70;4.20;;;2.90;99.90;;;;;;4994314;28;20517;-48
2022/11/15 03:55:06;;;;;;;6.45;3.67;;;2.80;99.90;;;;;;5001434;28;20173;-48
2022/11/15 03:57:54;;;;;;;10.30;3.40;;;2.70;99.90;;;;;;4993992;28;20533;-49
2022/11/15 04:00:39;;;;;;;6.78;3.67;;;2.70;99.90;;;;;;4993574;28;20065;-47
2022/11/15 04:03:25;;;;;;;7.22;3.85;;;2.70;99.90;;;;;;5003270;28;20140;-48
2022/11/15 04:06:10;;;;;;;6.75;3.85;;;2.70;99.90;;;;;;5009978;28;20545;-47
2022/11/15 04:08:56;;;;;;;6.28;3.40;;;2.80;99.90;;;;;;4994542;28;20618;-48
2022/11/15 04:11:41;;;;;;;8.27;4.47;;;2.70;99.90;;;;;;4994229;28;20116;-48
2022/11/15 04:14:26;;;;;;;7.35;3.65;;;2.70;99.90;;;;;;5011493;28;20052;-48
2022/11/15 04:17:12;;;;;;;6.45;4.15;;;2.80;99.90;;;;;;5013241;28;20056;-50
2022/11/15 04:26:19;;;;;;;9.32;4.50;;;2.70;99.90;;;;;;5013394;28;20177;-49
2022/11/15 04:29:50;;;;;;;5.32;3.63;;;2.70;99.90;;;;;;5012617;28;20061;-49
2022/11/15 04:32:10;;;;;;;7.18;4.05;;;2.70;99.90;;;;;;5009841;28;20133;-49
2022/11/15 04:34:55;;;;;;;7.60;4.20;;;2.70;99.90;;;;;;5004506;28;20049;-51
2022/11/15 04:37:40;;;;;;;7.30;3.90;;;2.60;99.90;;;;;;5011694;28;20052;-49
2022/11/15 04:40:33;;;;;;;12.40;4.50;;;2.60;99.90;;;;;;5012733;28;20516;-48
2022/11/15 04:43:18;;;;;;;7.38;4.07;;;2.60;99.90;;;;;;4986018;28;20052;-48
2022/11/15 04:46:04;;;;;;;9.23;5.78;;;2.60;99.90;;;;;;5009888;28;20175;-47
2022/11/15 04:48:50;;;;;;;7.93;5.25;;;2.60;99.90;;;;;;5012990;28;20109;-47
2022/11/15 04:51:42;;;;;;;7.80;4.93;;;2.60;99.90;;;;;;5012154;28;20271;-50
2022/11/15 04:54:28;;;;;;;10.48;4.53;;;2.60;99.90;;;;;;5009623;28;20145;-48
2022/11/15 04:57:14;;;;;;;9.80;4.00;;;2.50;99.90;;;;;;5012460;28;20048;-48
2022/11/15 04:59:59;;;;;;;10.27;4.43;;;2.50;99.90;;;;;;5010420;28;20060;-48
2022/11/15 05:05:49;;;;;;;10.30;3.97;;;2.50;99.90;;;;;;4998469;28;20065;-48
2022/11/15 05:08:34;;;;;;;11.25;4.97;;;2.50;99.90;;;;;;5011956;28;20053;-46
2022/11/15 05:11:20;;;;;;;13.27;5.18;;;2.50;99.90;;;;;;5000575;28;20120;-47
2022/11/15 05:14:05;;;;;;;12.45;4.95;;;2.50;99.90;;;;;;5007369;28;20048;-48
2022/11/15 05:16:51;;;;;;;9.00;5.07;;;2.50;99.90;;;;;;5009399;28;20132;-47
2022/11/15 05:19:36;;;;;;;12.00;5.63;;;2.50;99.90;;;;;;5007338;28;20045;-46
2022/11/15 05:22:22;;;;;;;10.00;4.28;;;2.50;99.90;;;;;;5011233;28;20053;-49
2022/11/15 05:25:08;;;;;;;8.77;4.50;;;2.40;99.90;;;;;;5008107;28;20049;-46
2022/11/15 05:27:53;;;;;;;7.85;4.72;;;2.40;99.90;;;;;;5006441;28;20136;-48
2022/11/15 05:30:39;;;;;;;8.50;4.63;;;2.40;99.90;;;;;;5000761;28;20184;-45
2022/11/15 05:33:24;;;;;;;9.45;5.20;;;2.30;99.90;;;;;;4998180;28;20045;-47
2022/11/15 05:36:36;;;;;;;12.23;5.72;;;2.20;99.90;;;;;;4999048;28;20088;-48
2022/11/15 05:39:22;;;;;;;8.50;4.85;;;2.20;99.90;;;;;;4991055;28;20634;-47
2022/11/15 05:42:15;;;;;;;9.27;5.20;;;2.30;99.90;;;;;;4992174;28;20124;-50
2022/11/15 05:45:04;;;;;;;11.85;5.38;;;2.20;99.90;;;;;;4991019;28;20065;-49
2022/11/15 05:47:51;;;;;;;11.13;5.20;;;2.30;99.90;;;;;;5002786;28;20410;-49
2022/11/15 05:50:40;;;;;;;11.02;5.00;;;2.30;99.90;;;;;;5000971;28;20445;-48
2022/11/15 05:53:26;;;;;;;11.13;5.60;;;2.30;99.90;;;;;;5001023;28;20056;-46
2022/11/15 05:56:12;;;;;;;10.98;5.60;;;2.30;99.90;;;;;;5005158;28;20100;-50
2022/11/15 05:58:58;;;;;;;14.25;5.10;;;2.30;99.90;;;;;;5002391;28;20056;-47
2022/11/15 06:01:44;;;;;;;11.48;4.53;;;2.30;99.90;;;;;;4995399;28;20462;-48
2022/11/15 06:04:30;;;;;;;11.45;5.93;;;2.40;99.90;;;;;;4992406;28;20049;-49
2022/11/15 06:07:15;;;;;;;10.95;5.72;;;2.40;99.90;;;;;;5005328;28;20041;-47
2022/11/15 06:10:01;;;;;;;10.18;5.50;;;2.40;99.90;;;;;;5007595;28;20524;-45
2022/11/15 06:12:47;;;;;;;6.72;4.47;;;2.40;99.90;;;;;;5007449;28;20180;-47
2022/11/15 06:15:33;;;;;;;13.77;7.40;;;2.40;99.90;;;;;;5005314;28;20058;-48
2022/11/15 06:18:19;;;;;;;15.02;7.93;;;2.40;99.90;;;;;;4992319;28;20072;-48
2022/11/15 06:21:05;;;;;;;10.15;4.85;;;2.40;99.90;;;;;;4991878;28;20069;-48
2022/11/15 06:23:50;;;;;;;10.73;5.40;;;2.40;99.90;;;;;;5005045;28;20108;-48
2022/11/15 06:26:35;;;;;;;10.07;4.72;;;2.40;99.90;;;;;;5008207;28;20184;-47
2022/11/15 06:29:21;;;;;;;9.82;4.50;;;2.50;99.90;;;;;;4991857;28;20521;-48
2022/11/15 06:32:07;;;;;;;8.70;4.93;;;2.50;99.90;;;;;;4991392;28;20101;-48
2022/11/15 06:34:52;;;;;;;9.02;6.18;;;2.60;99.90;;;;;;4993894;28;20057;-48
2022/11/15 06:37:37;;;;;;;9.43;5.80;;;2.60;99.90;;;;;;4991792;28;20049;-46
2022/11/15 06:40:23;;;;;;;10.02;4.85;;;2.60;99.90;;;;;;5001764;28;20061;-46
2022/11/15 06:43:08;;;;;;;15.10;6.35;;;2.60;99.90;;;;;;5009905;28;20112;-49
2022/11/15 06:45:54;;;;;;;8.63;4.97;;;2.60;99.90;;;;;;4994932;28;20050;-46
2022/11/15 06:48:39;;;;;;;17.88;6.13;;;2.60;99.90;;;;;;4991642;28;20093;-49
2022/11/15 06:51:24;;;;;;;10.13;5.38;;;2.60;99.90;;;;;;4993562;28;20069;-51
2022/11/15 06:54:10;;;;;;;9.57;4.75;;;2.60;99.90;;;;;;4991913;28;20114;-49
2022/11/15 06:56:55;;;;;;;9.00;5.10;;;2.60;99.90;;;;;;4991165;28;20053;-48
2022/11/15 06:59:41;;;;;;;19.05;10.38;;;2.60;99.90;;;;;;4998396;28;20052;-47
2022/11/15 07:02:26;;;;;;;24.95;11.05;;;2.60;99.90;;;;;;4997702;28;20387;-47
2022/11/15 07:05:13;;;;;;;25.38;12.50;;;2.40;99.90;;;;;;4991728;28;20054;-47
2022/11/15 07:07:59;;;;;;;22.92;11.13;;;2.40;99.90;;;;;;4992806;28;20523;-47
2022/11/15 07:10:44;;;;;;;11.73;6.38;;;2.30;99.90;;;;;;4991656;28;20682;-49
2022/11/15 07:13:34;;;;;;;9.15;5.30;;;2.30;99.90;;;;;;4989588;28;20132;-48
2022/11/15 07:16:20;;;;;;;22.33;8.10;;;2.20;99.90;;;;;;4999364;28;20141;-48
2022/11/15 07:19:05;;;;;;;19.80;10.30;;;2.20;99.90;;;;;;4991662;28;20132;-48
2022/11/15 07:21:51;;;;;;;15.25;8.52;;;2.30;99.90;;;;;;4990905;28;20545;-47
2022/11/15 07:24:36;;;;;;;11.95;6.95;;;2.30;99.90;;;;;;4991799;28;20454;-48
2022/11/15 07:27:21;;;;;;;13.93;7.10;;;2.40;99.90;;;;;;5006979;28;20525;-47
2022/11/15 07:30:07;;;;;;;13.38;6.93;;;2.50;99.90;;;;;;4991492;28;20419;-48
2022/11/15 07:32:57;;;;;;;12.65;6.35;;;2.60;99.90;;;;;;4991554;28;20421;-47
2022/11/15 07:35:46;;;;;;;15.30;6.65;;;2.70;99.90;;;;;;4999505;28;20052;-48
2022/11/15 07:38:32;;;;;;;18.95;8.05;;;2.70;99.90;;;;;;4993834;28;20537;-47
2022/11/15 07:41:25;;;;;;;13.07;5.80;;;2.70;99.90;;;;;;4994676;28;20517;-48
2022/11/15 07:44:11;;;;;;;11.07;5.20;;;2.70;99.90;;;;;;5006019;28;20173;-49
2022/11/15 07:46:57;;;;;;;8.75;5.18;;;2.80;99.90;;;;;;5014698;28;20137;-48
2022/11/15 07:49:43;;;;;;;10.20;4.97;;;2.80;99.90;;;;;;5014703;28;20181;-47
2022/11/15 07:52:29;;;;;;;9.25;4.65;;;2.90;99.90;;;;;;5007395;28;20196;-48
2022/11/15 07:55:14;;;;;;;14.35;6.70;;;3.10;99.90;;;;;;4994967;28;20181;-47
2022/11/15 07:58:04;;;;;;;11.32;5.65;;;3.20;99.90;;;;;;4994856;28;20120;-47
2022/11/15 08:00:50;;;;;;;10.77;5.68;;;3.50;99.90;;;;;;4999052;28;20127;-47
2022/11/15 08:03:36;;;;;;;10.38;5.30;;;3.70;99.90;;;;;;4994523;28;20049;-47
2022/11/15 08:06:21;;;;;;;10.32;4.80;;;3.90;99.90;;;;;;4994211;28;20156;-48
2022/11/15 08:09:06;;;;;;;7.60;4.35;;;4.10;99.90;;;;;;5003903;28;20056;-48
2022/11/15 08:11:52;;;;;;;9.73;5.20;;;4.20;99.90;;;;;;5005806;28;20104;-47
2022/11/15 08:14:38;;;;;;;11.05;4.68;;;4.40;99.90;;;;;;5014245;28;20136;-49
2022/11/15 08:17:24;;;;;;;11.52;4.70;;;4.50;99.90;;;;;;5011273;28;20453;-48
2022/11/15 08:20:10;;;;;;;10.38;4.85;;;4.70;99.90;;;;;;4994886;28;20537;-47
2022/11/15 08:23:00;;;;;;;13.70;6.20;;;4.80;99.90;;;;;;4993384;28;20069;-49
2022/11/15 08:25:45;;;;;;;12.23;5.10;;;4.90;99.90;;;;;;4994365;28;20054;-47
2022/11/15 08:28:32;;;;;;;8.82;5.32;;;4.90;99.90;;;;;;5008064;28;20131;-50
2022/11/15 08:31:18;;;;;;;9.57;5.40;;;5.00;99.90;;;;;;5005921;28;20520;-47
2022/11/15 08:34:05;;;;;;;10.77;5.03;;;5.10;99.90;;;;;;5002649;28;20589;-48
2022/11/15 08:36:51;;;;;;;11.77;5.30;;;5.20;99.90;;;;;;4993954;28;20072;-48
2022/11/15 08:39:37;;;;;;;9.88;5.10;;;5.30;99.90;;;;;;4998984;28;20101;-48
2022/11/15 08:42:22;;;;;;;9.00;4.85;;;5.30;99.90;;;;;;4992588;28;20061;-48
2022/11/15 08:45:08;;;;;;;7.47;4.40;;;5.40;99.90;;;;;;4993947;28;20411;-49
2022/11/15 08:47:54;;;;;;;10.20;4.18;;;5.40;99.90;;;;;;5005128;28;20053;-47
2022/11/15 08:50:39;;;;;;;5.40;3.55;;;5.60;99.90;;;;;;5005651;28;20057;-47
2022/11/15 08:53:25;;;;;;;8.18;3.70;;;5.70;99.90;;;;;;4993537;28;20100;-46
2022/11/15 08:56:12;;;;;;;9.63;5.03;;;5.70;99.90;;;;;;4993568;28;20422;-46
2022/11/15 08:58:58;;;;;;;6.53;3.85;;;5.90;99.90;;;;;;4994264;28;20061;-48
2022/11/15 09:01:43;;;;;;;8.88;3.67;;;6.00;99.90;;;;;;5004620;28;20075;-48
2022/11/15 09:04:29;;;;;;;5.20;3.38;;;6.00;99.90;;;;;;4993705;28;20109;-49
2022/11/15 09:07:15;;;;;;;10.25;3.97;;;6.10;99.90;;;;;;4993549;28;20061;-48
2022/11/15 09:10:00;;;;;;;6.72;3.67;;;6.20;99.90;;;;;;5028827;22;20147;-47
2022/11/15 09:12:48;;;;;;;5.88;2.97;;;6.30;99.90;;;;;;5071548;28;20046;-48
2022/11/15 09:15:33;;;;;;;7.32;2.90;;;6.50;99.90;;;;;;5072721;28;20056;-47
2022/11/15 09:18:20;;;;;;;5.80;3.55;;;6.70;99.90;;;;;;5065106;28;20114;-47
2022/11/15 09:21:07;;;;;;;7.10;4.00;;;6.90;99.90;;;;;;5054631;28;20075;-47
2022/11/15 09:23:52;;;;;;;7.32;3.65;;;7.10;99.90;;;;;;5052190;28;20056;-48
2022/11/15 09:26:38;;;;;;;7.93;3.85;;;7.20;99.90;;;;;;5050668;28;20421;-47
2022/11/15 09:29:23;;;;;;;8.88;4.07;;;7.40;99.90;;;;;;5041556;28;20052;-47
2022/11/15 09:32:09;;;;;;;7.47;3.88;;;7.50;99.90;;;;;;5051013;28;20052;-47
2022/11/15 09:34:54;;;;;;;5.43;3.45;;;7.60;99.90;;;;;;5051667;28;20408;-46
2022/11/15 09:37:39;;;;;;;6.72;3.33;;;7.60;99.90;;;;;;5051437;28;20068;-47
2022/11/15 09:40:26;;;;;;;13.60;4.82;;;7.60;99.90;;;;;;5051978;28;20426;-47
2022/11/15 09:43:36;;;;;;;6.38;3.33;;;7.60;99.90;;;;;;5043869;28;20168;-47
2022/11/15 09:46:28;;;;;;;5.93;3.70;;;7.70;99.90;;;;;;5030894;28;20119;-47
2022/11/15 09:49:15;;;;;;;6.97;3.30;;;7.70;99.90;;;;;;5044537;28;20239;-48
2022/11/15 09:52:02;;;;;;;8.43;3.35;;;7.80;99.90;;;;;;5050349;28;20055;-47
2022/11/15 09:54:47;;;;;;;9.90;3.33;;;7.90;99.90;;;;;;5046226;28;20392;-47
2022/11/15 09:57:39;;;;;;;9.80;3.90;;;8.00;99.90;;;;;;5051180;28;20468;-47
2022/11/15 10:00:38;;;;;;;6.75;3.55;;;8.10;99.90;;;;;;5050897;28;20092;-48
2022/11/15 10:03:16;;;;;;;6.18;2.70;;;8.20;99.90;;;;;;5045873;28;20412;-47
2022/11/15 10:05:49;;;;;;;5.25;2.97;;;8.30;99.90;;;;;;5051196;28;20076;-47
2022/11/15 10:08:30;;;;;;;4.60;2.40;;;8.40;99.90;;;;;;5051451;28;20409;-49
2022/11/15 10:11:01;;;;;;;5.30;2.97;;;8.50;99.90;;;;;;5045236;28;20037;-47
2022/11/15 10:13:50;;;;;;;4.32;2.67;;;8.80;99.90;;;;;;5051648;28;20049;-47
2022/11/15 10:16:19;;;;;;;6.78;3.00;;;8.80;99.90;;;;;;5051504;28;20362;-47
2022/11/15 10:19:31;;;;;;;5.45;2.88;;;8.80;99.90;;;;;;5043984;28;20048;-47
2022/11/15 10:22:03;;;;;;;3.72;2.05;;;8.80;99.90;;;;;;5035815;28;20448;-47
2022/11/15 10:24:37;;;;;;;2.97;1.80;;;8.80;99.90;;;;;;5051337;28;20095;-47
2022/11/15 10:27:16;;;;;;;5.15;2.22;;;9.10;99.90;;;;;;5045809;28;20069;-48
2022/11/15 10:29:45;;;;;;;5.47;2.22;;;9.30;99.90;;;;;;5051273;28;20067;-47
2022/11/15 10:32:13;;;;;;;6.53;1.98;;;9.50;99.90;;;;;;5048933;28;20150;-47
2022/11/15 10:34:40;;;;;;;2.75;1.80;;;9.60;99.90;;;;;;5046151;28;20106;-47
2022/11/15 10:37:07;;;;;;;4.53;1.90;;;9.80;99.90;;;;;;5050913;28;20452;-47
2022/11/15 10:39:33;;;;;;;2.55;1.80;;;9.90;99.90;;;;;;5045114;28;20106;-47
2022/11/15 10:42:25;;;;;;;3.00;2.40;;;10.00;99.90;;;;;;5049962;28;20049;-47
2022/11/15 10:44:52;;;;;;;3.40;1.90;;;10.10;99.90;;;;;;5051086;28;20068;-47
2022/11/15 10:47:31;;;;;;;3.83;2.25;;;10.20;99.90;;;;;;5044671;28;20117;-46
2022/11/15 10:50:24;;;;;;;3.65;1.88;;;10.30;99.90;;;;;;5050868;28;20098;-47
2022/11/15 10:52:51;;;;;;;4.28;1.92;;;10.30;99.90;;;;;;5050504;28;20079;-48
2022/11/15 10:55:24;;;;;;;3.92;2.10;;;10.30;99.90;;;;;;5044416;28;20065;-47
2022/11/15 10:57:53;;;;;;;5.25;2.20;;;10.40;99.90;;;;;;5033117;28;20049;-47
2022/11/15 11:00:20;;;;;;;2.85;1.80;;;10.50;99.90;;;;;;5048656;28;20037;-47
2022/11/15 11:02:55;;;;;;;2.58;1.92;;;10.60;99.90;;;;;;5050405;28;20378;-48
2022/11/15 11:05:32;;;;;;;6.10;2.10;;;10.40;99.90;;;;;;5049962;28;20052;-47
2022/11/15 11:08:15;;;;;;;4.15;1.90;;;10.40;99.90;;;;;;5050726;28;20045;-47
2022/11/15 11:10:56;;;;;;;2.50;1.92;;;10.30;99.90;;;;;;5049630;28;20041;-47
2022/11/15 11:13:37;;;;;;;3.22;1.58;;;10.30;99.90;;;;;;5054299;28;20048;-47
2022/11/15 11:16:13;;;;;;;3.72;2.10;;;10.30;99.90;;;;;;5055081;28;20406;-47
2022/11/15 11:19:06;;;;;;;2.88;1.90;;;10.30;99.90;;;;;;5049919;28;20037;-47
2022/11/15 11:21:44;;;;;;;4.88;2.03;;;10.40;99.90;;;;;;5052962;28;20263;-47
2022/11/15 11:24:17;;;;;;;;;;;10.30;99.90;;;;;;5055325;28;20128;-47
2022/11/15 11:27:35;;;;;;;2.53;1.75;;;10.40;99.90;;;;;;5047806;28;19932;-47
2022/11/15 11:30:13;;;;;;;2.85;1.70;;;10.50;99.90;;;;;;5054257;28;20269;-47
2022/11/15 11:32:53;;;;;;;3.40;2.17;;;10.60;99.90;;;;;;5053771;28;20558;-49
2022/11/15 11:35:39;;;;;;;7.68;2.10;;;10.70;99.90;;;;;;5041157;28;20041;-47
2022/11/15 11:38:32;;;;;;;3.55;1.65;;;10.70;99.90;;;;;;5053608;28;20087;-46
2022/11/15 11:41:15;;;;;;;4.55;1.77;;;10.80;99.90;;;;;;5053745;28;20049;-47
2022/11/15 11:44:08;;;;;;;6.25;2.15;;;10.80;99.90;;;;;;5048096;28;20037;-47
2022/11/15 11:47:12;;;;;;;2.58;1.67;;;11.00;99.90;;;;;;5054219;28;20541;-47
2022/11/15 11:49:59;;;;;;;2.65;2.00;;;11.00;99.90;;;;;;5052567;28;20448;-46
2022/11/15 11:52:31;;;;;;;14.85;5.05;;;11.10;99.90;;;;;;5053643;28;20041;-47
2022/11/15 11:55:03;;;;;;;10.48;4.18;;;11.20;99.90;;;;;;5053876;28;20079;-46
2022/11/15 11:57:51;;;;;;;3.35;2.00;;;11.20;99.90;;;;;;5053894;28;20397;-47
2022/11/15 12:00:28;;;;;;;7.32;3.88;;;11.30;99.90;;;;;;5050513;28;20049;-47
2022/11/15 12:03:08;;;;;;;6.22;3.25;;;11.30;99.90;;;;;;5050639;28;20037;-46
2022/11/15 12:05:53;;;;;;;15.63;6.68;;;11.40;99.90;;;;;;5053639;28;20045;-46
2022/11/15 12:08:35;;;;;;;8.02;4.25;;;11.50;99.90;;;;;;5049753;28;20060;-46
2022/11/15 12:11:20;;;;;;;5.93;3.33;;;11.50;99.90;;;;;;5051479;28;20551;-47
2022/11/15 12:13:50;;;;;;;4.57;2.85;;;11.60;99.90;;;;;;5053536;28;20531;-47
2022/11/15 12:16:27;;;;;;;6.38;2.70;;;11.60;99.90;;;;;;5034762;28;20086;-51
2022/11/15 12:18:56;;;;;;;5.38;2.78;;;11.60;99.90;;;;;;5053577;28;20405;-47
2022/11/15 12:21:32;;;;;;;3.85;2.65;;;11.70;99.90;;;;;;5046776;28;20098;-47
2022/11/15 12:24:05;;;;;;;5.53;2.55;;;11.60;99.90;;;;;;5053305;28;20036;-47
2022/11/15 12:26:52;;;;;;;3.25;2.50;;;11.60;99.90;;;;;;5052399;28;20037;-47
2022/11/15 12:29:33;;;;;;;5.50;2.00;;;11.70;99.90;;;;;;5051691;28;20068;-48
2022/11/15 12:32:02;;;;;;;7.43;2.00;;;11.70;99.90;;;;;;5050613;28;20390;-46
2022/11/15 12:34:34;;;;;;;5.55;2.40;;;11.70;99.90;;;;;;5052817;28;20121;-47
2022/11/15 12:37:22;;;;;;;5.15;2.50;;;11.80;99.90;;;;;;5053318;28;20037;-48
2022/11/15 12:40:06;;;;;;;11.18;2.72;;;11.90;99.90;;;;;;5043794;28;20037;-47
2022/11/15 12:42:41;;;;;;;6.50;2.60;;;12.00;99.90;;;;;;5052403;28;20087;-48
2022/11/15 12:45:39;;;;;;;3.78;2.28;;;12.00;99.90;;;;;;5048897;28;20127;-47
2022/11/15 12:48:15;;;;;;;6.13;2.20;;;12.10;99.90;;;;;;5052339;28;20045;-47
2022/11/15 12:50:51;;;;;;;4.22;2.30;;;12.10;99.90;;;;;;5052673;28;20075;-47
2022/11/15 12:53:24;;;;;;;3.72;2.78;;;12.20;99.90;;;;;;5049002;28;20045;-47
2022/11/15 12:56:03;;;;;;;3.88;2.05;;;12.20;99.90;;;;;;5049491;28;20041;-46
2022/11/15 12:58:58;;;;;;;6.07;2.63;;;12.30;99.90;;;;;;5052869;28;20045;-49
2022/11/15 13:01:31;;;;;;;4.55;2.45;;;12.30;99.90;;;;;;5033262;28;20103;-49
2022/11/15 13:04:19;;;;;;;4.45;2.20;;;12.20;99.90;;;;;;5052333;28;20161;-47
2022/11/15 13:06:49;;;;;;;6.93;2.37;;;12.20;99.90;;;;;;5052213;28;20490;-47
2022/11/15 13:09:35;;;;;;;5.47;2.35;;;12.20;99.90;;;;;;5045068;28;20068;-47
2022/11/15 13:12:30;;;;;;;5.13;2.17;;;12.30;99.90;;;;;;5051954;28;20555;-47
2022/11/15 13:14:59;;;;;;;5.20;2.33;;;12.30;99.90;;;;;;5052529;28;20045;-47
2022/11/15 13:17:33;;;;;;;3.83;2.03;;;12.40;99.90;;;;;;5047888;28;20432;-47
2022/11/15 13:20:06;;;;;;;4.70;2.55;;;12.40;99.90;;;;;;5046127;28;20041;-46
2022/11/15 13:23:00;;;;;;;4.38;2.63;;;12.30;99.90;;;;;;5051939;28;20040;-48
2022/11/15 13:25:39;;;;;;;4.63;1.90;;;12.30;99.90;;;;;;5052107;28;20623;-47
2022/11/15 13:28:42;;;;;;;6.40;2.22;;;12.30;99.90;;;;;;5049005;28;20041;-47
2022/11/15 13:31:21;;;;;;;4.03;1.70;;;12.40;99.90;;;;;;5045574;28;20394;-47
2022/11/15 13:33:47;;;;;;;5.22;2.25;;;12.40;99.90;;;;;;5051738;28;20053;-47
2022/11/15 13:36:34;;;;;;;2.05;1.50;;;12.50;99.90;;;;;;5045437;28;20040;-47
2022/11/15 13:39:12;;;;;;;8.40;1.80;;;12.50;99.90;;;;;;5051795;28;20041;-48
2022/11/15 13:41:47;;;;;;;3.67;2.03;;;12.50;99.90;;;;;;5051417;28;20572;-47
2022/11/15 13:44:26;;;;;;;3.30;1.90;;;12.50;99.90;;;;;;5045823;28;20041;-47
2022/11/15 13:47:26;;;;;;;3.60;2.03;;;12.50;99.90;;;;;;5051857;28;20063;-48
2022/11/15 13:49:56;;;;;;;7.47;2.05;;;12.60;99.90;;;;;;4993330;28;20053;-48
2022/11/15 13:52:28;;;;;;;3.58;1.60;;;12.50;99.90;;;;;;5041742;28;20029;-47
2022/11/15 13:55:07;;;;;;;2.60;1.48;;;12.50;99.90;;;;;;5051551;28;20045;-49
2022/11/15 13:57:46;;;;;;;26.30;6.78;;;12.40;99.90;;;;;;5045904;28;20037;-47
2022/11/15 14:00:39;;;;;;;19.13;6.28;;;12.40;99.90;;;;;;5045120;28;20123;-47
2022/11/15 14:03:14;;;;;;;18.17;6.97;;;12.40;99.90;;;;;;5049727;28;20116;-47
2022/11/15 14:05:41;;;;;;;8.05;4.15;;;12.30;99.90;;;;;;5046880;28;20064;-47
2022/11/15 14:08:20;;;;;;;13.75;3.85;;;12.30;99.90;;;;;;5045460;28;20095;-48
2022/11/15 14:10:46;;;;;;;6.10;3.28;;;12.20;99.90;;;;;;5050517;28;20075;-47
2022/11/15 14:13:31;;;;;;;10.02;3.08;;;12.20;99.90;;;;;;5050251;28;20045;-48
2022/11/15 14:16:14;;;;;;;5.63;3.03;;;12.10;99.90;;;;;;5028035;28;20559;-47
2022/11/15 14:18:46;;;;;;;5.68;3.25;;;12.00;99.90;;;;;;5050897;28;20067;-47
2022/11/15 14:21:13;;;;;;;7.53;4.45;;;11.80;99.90;;;;;;5047982;28;20095;-47
2022/11/15 14:23:40;;;;;;;16.13;8.45;;;11.70;99.90;;;;;;5044778;28;20079;-48
2022/11/15 14:26:31;;;;;;;14.05;6.47;;;11.50;99.90;;;;;;5050910;28;20047;-47
2022/11/15 14:29:22;;;;;;;10.77;6.07;;;11.30;99.90;;;;;;5049913;28;20052;-47
2022/11/15 14:31:49;;;;;;;13.25;6.70;;;11.10;99.90;;;;;;5049006;28;20497;-47
2022/11/15 14:34:15;;;;;;;13.50;7.00;;;11.00;99.90;;;;;;5042767;28;20049;-47